Bunnlevel, NC (28323)

8:36 AM EDT on October 01, 2016 (GMT -0400)
Harnett County Emergency Services | | Change Station
Active Advisory: Dense Fog Advisory

Elev 187 ft 35.39 °N, 78.80 °W | Updated 29 seconds ago

Fog
Fog
67.3 °F
Feels Like 67.3 °F
N
0.0
Wind Variable Wind from SSW
Gusts 0.0 mph

Today
High -- | Low -- °F
--% Chance of Precip.
Yesterday
High -- | Low -- °F
Precip. -- in
Pressure 30.07 in
Visibility 0.2 miles
Clouds Overcast 300 ft
Dew Point 67 °F
Humidity 99%
Rainfall 0.00 in
Snow Depth Not available.
7:10 AM 6:58 PM
New Moon, 0% visible
METAR KHRJ 011225Z AUTO 00000KT 1/4SM FG OVC003 19/19 A3007 RMK AO2 T01880188
Pressure 30.07 in
Visibility 0.2 miles
Clouds Overcast 300 ft
Dew Point 67 °F
Humidity 99%
Rainfall 0.00 in
Snow Depth Not available.
7:10 AM 6:58 PM
New Moon, 0% visible
METAR KHRJ 011225Z AUTO 00000KT 1/4SM FG OVC003 19/19 A3007 RMK AO2 T01880188

10-Day Weather Forecast

Almanac

Astronomy

Oct. 01, 2016 Rise Set
Actual Time
Civil Twilight
Nautical Twilight
Astronomical Twilight
Moon
Length of Visible Light
Length of Day
Tomorrow will be .
, % of the Moon is Illuminated

Today's Extremes

State Highs State Lows

Community

WunderPhotos

Upload Photos

1,942,923 photos uploaded!

WunderBlog® & News

Nearby

Air Quality

  Air Quality AQ Index Pollutant
Not available.

Snow Depth

Station Depth Elevation

Earthquake Activity

City Distance Mag. Time & Date
Minimum magnitude displayed is 2.5.

Coastal Water Temperatures

Place Temperature

Stations

Nearby Weather Stations

Station Location Temp. Windchill Dew Point Humidity Wind Precip. Elev Updated Type
                   

Watches & Warnings

Dense Fog Advisory
Issued: 6:29 AM EDT Oct. 1, 2016 – National Weather Service

... Dense fog advisory in effect until 9 am EDT this morning...

The National Weather Service in Raleigh has issued a dense fog
advisory... which is in effect until 9 am EDT this morning.

* Visibility... a quarter of a mile or less.

* Impacts... the rapid changes in visibility will create
potentially hazardous driving conditions.

Precautionary/preparedness actions...

A dense fog advisory means visibilities will frequently be
reduced to one quarter mile or less. If driving, slow down, use
low beam headlights, and leave plenty of following distance.
Exercise additional caution at intersections and Highway onramps
and offramps where accidents are more likely to occur.